sensor_id;sensor_type;location;lat;lon;timestamp;P1;durP1;ratioP1;P2;durP2;ratioP2
37241;SDS011;23135;51.078;12.108;2023-05-29T00:01:31;5.20;;;2.08;;
37241;SDS011;23135;51.078;12.108;2023-05-29T00:03:56;4.47;;;1.80;;
37241;SDS011;23135;51.078;12.108;2023-05-29T00:06:22;6.13;;;2.45;;
37241;SDS011;23135;51.078;12.108;2023-05-29T00:08:48;5.40;;;2.28;;
37241;SDS011;23135;51.078;12.108;2023-05-29T00:11:14;3.97;;;2.83;;
37241;SDS011;23135;51.078;12.108;2023-05-29T00:13:39;5.18;;;2.35;;
37241;SDS011;23135;51.078;12.108;2023-05-29T00:16:05;4.50;;;2.22;;
37241;SDS011;23135;51.078;12.108;2023-05-29T00:18:31;4.13;;;2.17;;
37241;SDS011;23135;51.078;12.108;2023-05-29T00:20:57;9.05;;;2.55;;
37241;SDS011;23135;51.078;12.108;2023-05-29T00:23:22;2.35;;;1.70;;
37241;SDS011;23135;51.078;12.108;2023-05-29T00:25:48;3.65;;;1.85;;
37241;SDS011;23135;51.078;12.108;2023-05-29T00:28:13;9.45;;;2.33;;
37241;SDS011;23135;51.078;12.108;2023-05-29T00:30:39;4.60;;;2.17;;
37241;SDS011;23135;51.078;12.108;2023-05-29T00:33:05;5.38;;;2.58;;
37241;SDS011;23135;51.078;12.108;2023-05-29T00:35:31;7.38;;;2.70;;
37241;SDS011;23135;51.078;12.108;2023-05-29T00:37:57;5.80;;;2.10;;
37241;SDS011;23135;51.078;12.108;2023-05-29T00:40:23;6.18;;;1.83;;
37241;SDS011;23135;51.078;12.108;2023-05-29T00:42:49;6.53;;;1.75;;
37241;SDS011;23135;51.078;12.108;2023-05-29T00:45:15;8.55;;;1.63;;
37241;SDS011;23135;51.078;12.108;2023-05-29T00:47:44;6.65;;;2.17;;
37241;SDS011;23135;51.078;12.108;2023-05-29T00:50:10;5.50;;;2.90;;
37241;SDS011;23135;51.078;12.108;2023-05-29T00:52:38;4.32;;;2.00;;
37241;SDS011;23135;51.078;12.108;2023-05-29T00:55:06;9.73;;;3.05;;
37241;SDS011;23135;51.078;12.108;2023-05-29T00:57:34;4.70;;;2.33;;
37241;SDS011;23135;51.078;12.108;2023-05-29T01:00:00;4.38;;;2.15;;
37241;SDS011;23135;51.078;12.108;2023-05-29T01:02:30;4.55;;;2.65;;
37241;SDS011;23135;51.078;12.108;2023-05-29T01:04:56;3.80;;;1.77;;
37241;SDS011;23135;51.078;12.108;2023-05-29T01:07:22;10.30;;;2.97;;
37241;SDS011;23135;51.078;12.108;2023-05-29T01:09:48;6.57;;;2.42;;
37241;SDS011;23135;51.078;12.108;2023-05-29T01:15:01;5.80;;;2.45;;
37241;SDS011;23135;51.078;12.108;2023-05-29T01:28:27;9.38;;;2.00;;
37241;SDS011;23135;51.078;12.108;2023-05-29T01:31:06;6.68;;;3.13;;
37241;SDS011;23135;51.078;12.108;2023-05-29T01:33:33;5.05;;;2.58;;
37241;SDS011;23135;51.078;12.108;2023-05-29T01:35:58;8.30;;;3.28;;
37241;SDS011;23135;51.078;12.108;2023-05-29T01:38:24;5.45;;;2.72;;
37241;SDS011;23135;51.078;12.108;2023-05-29T01:40:50;8.00;;;2.72;;
37241;SDS011;23135;51.078;12.108;2023-05-29T01:43:16;7.60;;;2.95;;
37241;SDS011;23135;51.078;12.108;2023-05-29T01:45:42;5.93;;;2.72;;
37241;SDS011;23135;51.078;12.108;2023-05-29T01:48:08;7.03;;;2.60;;
37241;SDS011;23135;51.078;12.108;2023-05-29T01:50:34;5.00;;;2.22;;
37241;SDS011;23135;51.078;12.108;2023-05-29T01:53:00;4.68;;;2.15;;
37241;SDS011;23135;51.078;12.108;2023-05-29T01:55:26;8.10;;;2.80;;
37241;SDS011;23135;51.078;12.108;2023-05-29T01:57:51;5.05;;;2.92;;
37241;SDS011;23135;51.078;12.108;2023-05-29T02:00:18;6.32;;;3.15;;
37241;SDS011;23135;51.078;12.108;2023-05-29T02:02:44;4.07;;;2.55;;
37241;SDS011;23135;51.078;12.108;2023-05-29T02:05:10;8.65;;;3.22;;
37241;SDS011;23135;51.078;12.108;2023-05-29T02:07:36;6.70;;;3.03;;
37241;SDS011;23135;51.078;12.108;2023-05-29T02:10:04;8.55;;;3.63;;
37241;SDS011;23135;51.078;12.108;2023-05-29T02:12:30;7.93;;;2.90;;
37241;SDS011;23135;51.078;12.108;2023-05-29T02:14:56;8.27;;;3.03;;
37241;SDS011;23135;51.078;12.108;2023-05-29T02:17:22;13.20;;;3.05;;
37241;SDS011;23135;51.078;12.108;2023-05-29T02:19:48;13.70;;;3.95;;
37241;SDS011;23135;51.078;12.108;2023-05-29T02:22:13;7.90;;;3.17;;
37241;SDS011;23135;51.078;12.108;2023-05-29T02:24:39;11.15;;;3.17;;
37241;SDS011;23135;51.078;12.108;2023-05-29T02:27:05;8.27;;;3.65;;
37241;SDS011;23135;51.078;12.108;2023-05-29T02:29:31;13.55;;;3.10;;
37241;SDS011;23135;51.078;12.108;2023-05-29T02:31:57;9.63;;;3.25;;
37241;SDS011;23135;51.078;12.108;2023-05-29T02:34:22;6.20;;;3.47;;
37241;SDS011;23135;51.078;12.108;2023-05-29T02:36:49;11.80;;;3.65;;
37241;SDS011;23135;51.078;12.108;2023-05-29T02:39:16;7.68;;;2.67;;
37241;SDS011;23135;51.078;12.108;2023-05-29T02:41:42;7.82;;;3.85;;
37241;SDS011;23135;51.078;12.108;2023-05-29T02:44:08;6.20;;;2.80;;
37241;SDS011;23135;51.078;12.108;2023-05-29T02:46:33;9.93;;;3.20;;
37241;SDS011;23135;51.078;12.108;2023-05-29T02:48:59;6.68;;;3.63;;
37241;SDS011;23135;51.078;12.108;2023-05-29T02:51:25;7.88;;;4.05;;
37241;SDS011;23135;51.078;12.108;2023-05-29T02:53:50;12.38;;;3.72;;
37241;SDS011;23135;51.078;12.108;2023-05-29T02:56:16;8.40;;;3.70;;
37241;SDS011;23135;51.078;12.108;2023-05-29T02:58:42;6.90;;;3.90;;
37241;SDS011;23135;51.078;12.108;2023-05-29T03:01:07;7.30;;;3.97;;
37241;SDS011;23135;51.078;12.108;2023-05-29T03:03:33;10.00;;;3.63;;
37241;SDS011;23135;51.078;12.108;2023-05-29T03:05:59;9.88;;;3.25;;
37241;SDS011;23135;51.078;12.108;2023-05-29T03:08:25;10.07;;;3.55;;
37241;SDS011;23135;51.078;12.108;2023-05-29T03:10:52;15.70;;;5.15;;
37241;SDS011;23135;51.078;12.108;2023-05-29T03:13:18;10.25;;;4.82;;
37241;SDS011;23135;51.078;12.108;2023-05-29T03:15:43;6.93;;;3.95;;
37241;SDS011;23135;51.078;12.108;2023-05-29T03:18:09;9.55;;;4.40;;
37241;SDS011;23135;51.078;12.108;2023-05-29T03:20:35;10.73;;;3.97;;
37241;SDS011;23135;51.078;12.108;2023-05-29T03:23:00;9.13;;;4.20;;
37241;SDS011;23135;51.078;12.108;2023-05-29T03:25:26;11.00;;;4.15;;
37241;SDS011;23135;51.078;12.108;2023-05-29T03:27:52;8.85;;;3.72;;
37241;SDS011;23135;51.078;12.108;2023-05-29T03:30:17;8.90;;;4.28;;
37241;SDS011;23135;51.078;12.108;2023-05-29T03:32:45;9.45;;;3.90;;
37241;SDS011;23135;51.078;12.108;2023-05-29T03:35:11;11.15;;;4.68;;
37241;SDS011;23135;51.078;12.108;2023-05-29T03:37:36;8.20;;;4.32;;
37241;SDS011;23135;51.078;12.108;2023-05-29T03:40:02;12.95;;;4.72;;
37241;SDS011;23135;51.078;12.108;2023-05-29T03:42:29;14.23;;;3.80;;
37241;SDS011;23135;51.078;12.108;2023-05-29T03:44:56;6.90;;;3.95;;
37241;SDS011;23135;51.078;12.108;2023-05-29T03:47:22;8.40;;;4.03;;
37241;SDS011;23135;51.078;12.108;2023-05-29T03:49:47;13.35;;;4.30;;
37241;SDS011;23135;51.078;12.108;2023-05-29T03:52:13;10.50;;;3.90;;
37241;SDS011;23135;51.078;12.108;2023-05-29T03:54:38;8.20;;;3.60;;
37241;SDS011;23135;51.078;12.108;2023-05-29T03:57:04;6.03;;;3.42;;
37241;SDS011;23135;51.078;12.108;2023-05-29T03:59:31;6.53;;;3.13;;
37241;SDS011;23135;51.078;12.108;2023-05-29T04:01:57;7.05;;;3.35;;
37241;SDS011;23135;51.078;12.108;2023-05-29T04:04:23;9.80;;;4.00;;
37241;SDS011;23135;51.078;12.108;2023-05-29T04:06:48;9.73;;;4.40;;
37241;SDS011;23135;51.078;12.108;2023-05-29T04:09:14;11.90;;;3.15;;
37241;SDS011;23135;51.078;12.108;2023-05-29T04:11:40;14.68;;;5.10;;
37241;SDS011;23135;51.078;12.108;2023-05-29T04:14:06;6.70;;;3.33;;
37241;SDS011;23135;51.078;12.108;2023-05-29T04:16:32;10.18;;;3.15;;
37241;SDS011;23135;51.078;12.108;2023-05-29T04:18:57;8.95;;;3.65;;
37241;SDS011;23135;51.078;12.108;2023-05-29T04:21:23;13.90;;;3.42;;
37241;SDS011;23135;51.078;12.108;2023-05-29T04:23:49;9.68;;;3.95;;
37241;SDS011;23135;51.078;12.108;2023-05-29T04:26:14;11.68;;;4.60;;
37241;SDS011;23135;51.078;12.108;2023-05-29T04:28:40;12.15;;;4.00;;
37241;SDS011;23135;51.078;12.108;2023-05-29T04:31:07;10.27;;;4.35;;
37241;SDS011;23135;51.078;12.108;2023-05-29T04:33:33;8.25;;;3.83;;
37241;SDS011;23135;51.078;12.108;2023-05-29T04:36:01;9.30;;;4.38;;
37241;SDS011;23135;51.078;12.108;2023-05-29T04:38:28;11.73;;;4.30;;
37241;SDS011;23135;51.078;12.108;2023-05-29T04:40:54;7.32;;;3.50;;
37241;SDS011;23135;51.078;12.108;2023-05-29T04:43:23;12.30;;;4.15;;
37241;SDS011;23135;51.078;12.108;2023-05-29T04:45:51;9.35;;;3.72;;
37241;SDS011;23135;51.078;12.108;2023-05-29T04:48:20;8.20;;;3.53;;
37241;SDS011;23135;51.078;12.108;2023-05-29T04:50:45;9.00;;;3.35;;
37241;SDS011;23135;51.078;12.108;2023-05-29T04:53:11;11.25;;;4.22;;
37241;SDS011;23135;51.078;12.108;2023-05-29T04:55:36;9.38;;;3.58;;
37241;SDS011;23135;51.078;12.108;2023-05-29T04:58:02;12.95;;;3.83;;
37241;SDS011;23135;51.078;12.108;2023-05-29T05:00:28;12.35;;;5.07;;
37241;SDS011;23135;51.078;12.108;2023-05-29T05:02:53;11.05;;;3.60;;
37241;SDS011;23135;51.078;12.108;2023-05-29T05:05:20;6.13;;;3.40;;
37241;SDS011;23135;51.078;12.108;2023-05-29T05:07:45;11.57;;;3.90;;
37241;SDS011;23135;51.078;12.108;2023-05-29T05:10:11;13.68;;;4.13;;
37241;SDS011;23135;51.078;12.108;2023-05-29T05:12:37;7.28;;;3.85;;
37241;SDS011;23135;51.078;12.108;2023-05-29T05:15:03;9.73;;;3.80;;
37241;SDS011;23135;51.078;12.108;2023-05-29T05:17:29;10.63;;;4.45;;
37241;SDS011;23135;51.078;12.108;2023-05-29T05:19:54;10.18;;;5.80;;
37241;SDS011;23135;51.078;12.108;2023-05-29T05:22:20;12.25;;;4.75;;
37241;SDS011;23135;51.078;12.108;2023-05-29T05:24:46;10.10;;;4.07;;
37241;SDS011;23135;51.078;12.108;2023-05-29T05:27:12;10.18;;;4.40;;
37241;SDS011;23135;51.078;12.108;2023-05-29T05:29:37;15.82;;;3.65;;
37241;SDS011;23135;51.078;12.108;2023-05-29T05:32:03;17.67;;;4.53;;
37241;SDS011;23135;51.078;12.108;2023-05-29T05:34:29;12.95;;;4.78;;
37241;SDS011;23135;51.078;12.108;2023-05-29T05:36:55;9.30;;;4.78;;
37241;SDS011;23135;51.078;12.108;2023-05-29T05:39:20;9.25;;;2.83;;
37241;SDS011;23135;51.078;12.108;2023-05-29T05:41:46;14.32;;;4.25;;
37241;SDS011;23135;51.078;12.108;2023-05-29T05:44:11;12.43;;;3.17;;
37241;SDS011;23135;51.078;12.108;2023-05-29T05:46:37;7.05;;;3.13;;
37241;SDS011;23135;51.078;12.108;2023-05-29T05:49:02;7.57;;;3.05;;
37241;SDS011;23135;51.078;12.108;2023-05-29T05:51:28;13.48;;;3.70;;
37241;SDS011;23135;51.078;12.108;2023-05-29T05:53:54;10.23;;;2.75;;
37241;SDS011;23135;51.078;12.108;2023-05-29T05:56:19;12.45;;;4.90;;
37241;SDS011;23135;51.078;12.108;2023-05-29T05:58:45;15.77;;;3.58;;
37241;SDS011;23135;51.078;12.108;2023-05-29T06:01:10;7.35;;;3.05;;
37241;SDS011;23135;51.078;12.108;2023-05-29T06:03:36;10.18;;;2.97;;
37241;SDS011;23135;51.078;12.108;2023-05-29T06:06:02;9.85;;;3.13;;
37241;SDS011;23135;51.078;12.108;2023-05-29T06:08:29;11.25;;;3.15;;
37241;SDS011;23135;51.078;12.108;2023-05-29T06:10:55;8.85;;;3.42;;
37241;SDS011;23135;51.078;12.108;2023-05-29T06:13:21;10.15;;;3.50;;
37241;SDS011;23135;51.078;12.108;2023-05-29T06:15:47;9.65;;;3.10;;
37241;SDS011;23135;51.078;12.108;2023-05-29T06:18:12;8.18;;;2.58;;
37241;SDS011;23135;51.078;12.108;2023-05-29T06:20:38;12.85;;;4.57;;
37241;SDS011;23135;51.078;12.108;2023-05-29T06:23:03;12.52;;;3.05;;
37241;SDS011;23135;51.078;12.108;2023-05-29T06:25:29;6.13;;;2.55;;
37241;SDS011;23135;51.078;12.108;2023-05-29T06:28:01;9.80;;;2.88;;
37241;SDS011;23135;51.078;12.108;2023-05-29T06:30:30;8.98;;;3.28;;
37241;SDS011;23135;51.078;12.108;2023-05-29T06:32:56;7.03;;;3.70;;
37241;SDS011;23135;51.078;12.108;2023-05-29T06:35:22;7.47;;;3.00;;
37241;SDS011;23135;51.078;12.108;2023-05-29T06:37:47;10.48;;;3.25;;
37241;SDS011;23135;51.078;12.108;2023-05-29T06:40:13;8.48;;;2.78;;
37241;SDS011;23135;51.078;12.108;2023-05-29T06:42:40;5.88;;;3.00;;
37241;SDS011;23135;51.078;12.108;2023-05-29T06:45:06;9.38;;;3.05;;
37241;SDS011;23135;51.078;12.108;2023-05-29T06:47:32;12.43;;;3.20;;
37241;SDS011;23135;51.078;12.108;2023-05-29T06:49:58;10.80;;;3.30;;
37241;SDS011;23135;51.078;12.108;2023-05-29T06:52:23;6.28;;;2.22;;
37241;SDS011;23135;51.078;12.108;2023-05-29T06:54:49;8.05;;;2.53;;
37241;SDS011;23135;51.078;12.108;2023-05-29T06:57:15;7.60;;;3.05;;
37241;SDS011;23135;51.078;12.108;2023-05-29T06:59:40;10.20;;;3.25;;
37241;SDS011;23135;51.078;12.108;2023-05-29T07:02:06;4.00;;;2.55;;
37241;SDS011;23135;51.078;12.108;2023-05-29T07:04:31;9.93;;;2.88;;
37241;SDS011;23135;51.078;12.108;2023-05-29T07:06:57;6.38;;;2.90;;
37241;SDS011;23135;51.078;12.108;2023-05-29T07:09:22;9.65;;;3.47;;
37241;SDS011;23135;51.078;12.108;2023-05-29T07:11:50;7.82;;;3.30;;
37241;SDS011;23135;51.078;12.108;2023-05-29T07:14:15;14.40;;;3.40;;
37241;SDS011;23135;51.078;12.108;2023-05-29T07:16:41;10.15;;;3.05;;
37241;SDS011;23135;51.078;12.108;2023-05-29T07:19:06;7.03;;;1.98;;
37241;SDS011;23135;51.078;12.108;2023-05-29T07:21:32;9.52;;;3.05;;
37241;SDS011;23135;51.078;12.108;2023-05-29T07:23:58;6.32;;;2.50;;
37241;SDS011;23135;51.078;12.108;2023-05-29T07:26:24;9.35;;;2.90;;
37241;SDS011;23135;51.078;12.108;2023-05-29T07:28:50;7.35;;;2.40;;
37241;SDS011;23135;51.078;12.108;2023-05-29T07:31:16;8.70;;;3.28;;
37241;SDS011;23135;51.078;12.108;2023-05-29T07:33:41;5.35;;;2.78;;
37241;SDS011;23135;51.078;12.108;2023-05-29T07:36:07;6.82;;;3.00;;
37241;SDS011;23135;51.078;12.108;2023-05-29T07:38:32;9.65;;;2.90;;
37241;SDS011;23135;51.078;12.108;2023-05-29T07:40:58;9.35;;;3.35;;
37241;SDS011;23135;51.078;12.108;2023-05-29T07:43:24;7.40;;;3.13;;
37241;SDS011;23135;51.078;12.108;2023-05-29T07:45:50;9.60;;;2.80;;
37241;SDS011;23135;51.078;12.108;2023-05-29T07:48:15;9.43;;;3.42;;
37241;SDS011;23135;51.078;12.108;2023-05-29T07:50:41;8.35;;;4.28;;
37241;SDS011;23135;51.078;12.108;2023-05-29T07:53:06;4.30;;;2.40;;
37241;SDS011;23135;51.078;12.108;2023-05-29T07:55:33;9.25;;;2.50;;
37241;SDS011;23135;51.078;12.108;2023-05-29T07:57:59;6.05;;;2.72;;
37241;SDS011;23135;51.078;12.108;2023-05-29T08:00:26;5.10;;;3.08;;
37241;SDS011;23135;51.078;12.108;2023-05-29T08:02:53;8.73;;;2.95;;
37241;SDS011;23135;51.078;12.108;2023-05-29T08:05:19;7.68;;;2.63;;
37241;SDS011;23135;51.078;12.108;2023-05-29T08:07:45;5.05;;;2.65;;
37241;SDS011;23135;51.078;12.108;2023-05-29T08:10:11;7.60;;;2.97;;
37241;SDS011;23135;51.078;12.108;2023-05-29T08:12:37;11.75;;;3.05;;
37241;SDS011;23135;51.078;12.108;2023-05-29T08:15:03;4.53;;;2.30;;
37241;SDS011;23135;51.078;12.108;2023-05-29T08:17:29;6.18;;;2.58;;
37241;SDS011;23135;51.078;12.108;2023-05-29T08:19:54;6.47;;;1.92;;
37241;SDS011;23135;51.078;12.108;2023-05-29T08:22:21;5.40;;;1.58;;
37241;SDS011;23135;51.078;12.108;2023-05-29T08:24:53;5.18;;;1.98;;
37241;SDS011;23135;51.078;12.108;2023-05-29T08:27:18;6.40;;;2.03;;
37241;SDS011;23135;51.078;12.108;2023-05-29T08:29:44;6.28;;;2.67;;
37241;SDS011;23135;51.078;12.108;2023-05-29T08:32:10;8.40;;;3.00;;
37241;SDS011;23135;51.078;12.108;2023-05-29T08:34:35;6.30;;;2.25;;
37241;SDS011;23135;51.078;12.108;2023-05-29T08:37:01;5.90;;;2.95;;
37241;SDS011;23135;51.078;12.108;2023-05-29T08:39:26;7.13;;;2.58;;
37241;SDS011;23135;51.078;12.108;2023-05-29T08:44:35;8.88;;;2.75;;
37241;SDS011;23135;51.078;12.108;2023-05-29T08:47:04;10.07;;;2.80;;
37241;SDS011;23135;51.078;12.108;2023-05-29T08:49:41;6.97;;;2.10;;
37241;SDS011;23135;51.078;12.108;2023-05-29T08:52:26;6.72;;;3.00;;
37241;SDS011;23135;51.078;12.108;2023-05-29T08:54:54;8.02;;;2.35;;
37241;SDS011;23135;51.078;12.108;2023-05-29T08:57:20;5.75;;;2.10;;
37241;SDS011;23135;51.078;12.108;2023-05-29T08:59:47;6.95;;;3.15;;
37241;SDS011;23135;51.078;12.108;2023-05-29T09:02:17;8.95;;;2.45;;
37241;SDS011;23135;51.078;12.108;2023-05-29T09:04:42;7.57;;;2.28;;
37241;SDS011;23135;51.078;12.108;2023-05-29T09:07:13;5.65;;;1.75;;
37241;SDS011;23135;51.078;12.108;2023-05-29T09:09:43;10.35;;;2.65;;
37241;SDS011;23135;51.078;12.108;2023-05-29T09:12:10;6.85;;;1.73;;
37241;SDS011;23135;51.078;12.108;2023-05-29T09:14:37;5.13;;;2.92;;
37241;SDS011;23135;51.078;12.108;2023-05-29T09:17:07;5.22;;;2.58;;
37241;SDS011;23135;51.078;12.108;2023-05-29T09:19:33;7.32;;;3.35;;
37241;SDS011;23135;51.078;12.108;2023-05-29T09:24:33;6.10;;;1.65;;
37241;SDS011;23135;51.078;12.108;2023-05-29T09:26:59;6.60;;;2.80;;
37241;SDS011;23135;51.078;12.108;2023-05-29T09:29:27;6.30;;;1.98;;
37241;SDS011;23135;51.078;12.108;2023-05-29T09:31:55;9.93;;;2.63;;
37241;SDS011;23135;51.078;12.108;2023-05-29T09:34:23;4.60;;;2.30;;
37241;SDS011;23135;51.078;12.108;2023-05-29T09:36:51;7.07;;;2.25;;
37241;SDS011;23135;51.078;12.108;2023-05-29T09:39:17;5.10;;;1.98;;
37241;SDS011;23135;51.078;12.108;2023-05-29T09:41:44;12.35;;;2.47;;
37241;SDS011;23135;51.078;12.108;2023-05-29T09:44:13;6.18;;;2.47;;
37241;SDS011;23135;51.078;12.108;2023-05-29T09:46:42;9.45;;;2.22;;
37241;SDS011;23135;51.078;12.108;2023-05-29T09:49:08;8.70;;;2.47;;
37241;SDS011;23135;51.078;12.108;2023-05-29T09:51:36;8.00;;;2.72;;
37241;SDS011;23135;51.078;12.108;2023-05-29T09:56:41;4.88;;;2.13;;
37241;SDS011;23135;51.078;12.108;2023-05-29T09:59:11;11.48;;;2.25;;
37241;SDS011;23135;51.078;12.108;2023-05-29T10:01:41;6.15;;;2.22;;
37241;SDS011;23135;51.078;12.108;2023-05-29T10:04:11;8.07;;;3.25;;
37241;SDS011;23135;51.078;12.108;2023-05-29T10:06:38;5.50;;;1.98;;
37241;SDS011;23135;51.078;12.108;2023-05-29T10:09:09;5.65;;;1.95;;
37241;SDS011;23135;51.078;12.108;2023-05-29T10:11:37;5.70;;;1.83;;
37241;SDS011;23135;51.078;12.108;2023-05-29T10:14:05;8.82;;;2.05;;
37241;SDS011;23135;51.078;12.108;2023-05-29T10:16:32;6.60;;;1.98;;
37241;SDS011;23135;51.078;12.108;2023-05-29T10:19:03;4.20;;;1.58;;
37241;SDS011;23135;51.078;12.108;2023-05-29T10:21:36;5.28;;;3.25;;
37241;SDS011;23135;51.078;12.108;2023-05-29T10:24:05;10.00;;;2.47;;
37241;SDS011;23135;51.078;12.108;2023-05-29T10:26:34;5.95;;;2.17;;
37241;SDS011;23135;51.078;12.108;2023-05-29T10:29:10;6.72;;;1.15;;
37241;SDS011;23135;51.078;12.108;2023-05-29T10:32:05;5.73;;;2.10;;
37241;SDS011;23135;51.078;12.108;2023-05-29T10:34:48;2.53;;;1.10;;
37241;SDS011;23135;51.078;12.108;2023-05-29T10:37:36;3.22;;;0.95;;
37241;SDS011;23135;51.078;12.108;2023-05-29T10:40:09;11.10;;;1.65;;
37241;SDS011;23135;51.078;12.108;2023-05-29T10:45:07;9.35;;;2.05;;
37241;SDS011;23135;51.078;12.108;2023-05-29T10:47:33;3.50;;;1.30;;
37241;SDS011;23135;51.078;12.108;2023-05-29T10:50:02;3.90;;;1.38;;
37241;SDS011;23135;51.078;12.108;2023-05-29T10:52:31;4.03;;;1.00;;
37241;SDS011;23135;51.078;12.108;2023-05-29T10:55:04;4.43;;;1.38;;
37241;SDS011;23135;51.078;12.108;2023-05-29T10:57:30;5.07;;;1.00;;
37241;SDS011;23135;51.078;12.108;2023-05-29T11:00:02;6.40;;;1.90;;
37241;SDS011;23135;51.078;12.108;2023-05-29T11:02:31;7.43;;;3.00;;
37241;SDS011;23135;51.078;12.108;2023-05-29T11:07:58;8.52;;;4.03;;
37241;SDS011;23135;51.078;12.108;2023-05-29T11:13:22;7.22;;;1.77;;
37241;SDS011;23135;51.078;12.108;2023-05-29T11:16:04;6.22;;;1.98;;
37241;SDS011;23135;51.078;12.108;2023-05-29T11:18:45;4.40;;;1.50;;
37241;SDS011;23135;51.078;12.108;2023-05-29T11:24:23;2.13;;;1.10;;
37241;SDS011;23135;51.078;12.108;2023-05-29T11:26:53;3.58;;;1.45;;
37241;SDS011;23135;51.078;12.108;2023-05-29T11:29:21;6.53;;;2.00;;
37241;SDS011;23135;51.078;12.108;2023-05-29T11:31:55;4.05;;;1.30;;
37241;SDS011;23135;51.078;12.108;2023-05-29T11:34:23;5.55;;;1.30;;
37241;SDS011;23135;51.078;12.108;2023-05-29T11:36:53;10.38;;;1.50;;
37241;SDS011;23135;51.078;12.108;2023-05-29T11:39:18;3.05;;;1.42;;
37241;SDS011;23135;51.078;12.108;2023-05-29T11:41:44;6.30;;;1.33;;
37241;SDS011;23135;51.078;12.108;2023-05-29T11:44:13;4.03;;;1.35;;
37241;SDS011;23135;51.078;12.108;2023-05-29T11:46:38;3.55;;;1.17;;
37241;SDS011;23135;51.078;12.108;2023-05-29T11:49:05;4.80;;;1.13;;
37241;SDS011;23135;51.078;12.108;2023-05-29T11:51:30;3.55;;;1.08;;
37241;SDS011;23135;51.078;12.108;2023-05-29T11:53:56;2.75;;;0.88;;
37241;SDS011;23135;51.078;12.108;2023-05-29T11:56:26;3.38;;;0.90;;
37241;SDS011;23135;51.078;12.108;2023-05-29T11:58:52;5.47;;;1.10;;
37241;SDS011;23135;51.078;12.108;2023-05-29T12:01:21;3.92;;;1.42;;
37241;SDS011;23135;51.078;12.108;2023-05-29T12:03:48;5.50;;;1.23;;
37241;SDS011;23135;51.078;12.108;2023-05-29T12:06:14;7.47;;;1.95;;
37241;SDS011;23135;51.078;12.108;2023-05-29T12:08:40;2.22;;;1.02;;
37241;SDS011;23135;51.078;12.108;2023-05-29T12:11:06;4.57;;;1.73;;
37241;SDS011;23135;51.078;12.108;2023-05-29T12:13:32;3.38;;;1.27;;
37241;SDS011;23135;51.078;12.108;2023-05-29T12:15:59;3.95;;;0.70;;
37241;SDS011;23135;51.078;12.108;2023-05-29T12:18:27;2.35;;;0.50;;
37241;SDS011;23135;51.078;12.108;2023-05-29T12:21:00;3.78;;;1.08;;
37241;SDS011;23135;51.078;12.108;2023-05-29T12:23:27;3.90;;;1.10;;
37241;SDS011;23135;51.078;12.108;2023-05-29T12:25:54;6.28;;;1.60;;
37241;SDS011;23135;51.078;12.108;2023-05-29T12:28:20;4.65;;;1.33;;
37241;SDS011;23135;51.078;12.108;2023-05-29T12:30:46;3.33;;;1.05;;
37241;SDS011;23135;51.078;12.108;2023-05-29T12:36:03;7.72;;;1.45;;
37241;SDS011;23135;51.078;12.108;2023-05-29T12:38:45;5.97;;;1.45;;
37241;SDS011;23135;51.078;12.108;2023-05-29T12:41:28;2.92;;;1.10;;
37241;SDS011;23135;51.078;12.108;2023-05-29T12:43:55;5.68;;;1.55;;
37241;SDS011;23135;51.078;12.108;2023-05-29T12:46:22;5.25;;;1.58;;
37241;SDS011;23135;51.078;12.108;2023-05-29T12:48:48;1.88;;;0.77;;
37241;SDS011;23135;51.078;12.108;2023-05-29T12:51:14;2.47;;;1.10;;
37241;SDS011;23135;51.078;12.108;2023-05-29T12:53:42;4.60;;;0.93;;
37241;SDS011;23135;51.078;12.108;2023-05-29T12:56:08;4.05;;;0.98;;
37241;SDS011;23135;51.078;12.108;2023-05-29T12:58:33;5.40;;;1.40;;
37241;SDS011;23135;51.078;12.108;2023-05-29T13:00:59;3.85;;;1.15;;
37241;SDS011;23135;51.078;12.108;2023-05-29T13:03:24;1.73;;;0.85;;
37241;SDS011;23135;51.078;12.108;2023-05-29T13:05:51;5.93;;;1.42;;
37241;SDS011;23135;51.078;12.108;2023-05-29T13:08:18;3.55;;;0.70;;
37241;SDS011;23135;51.078;12.108;2023-05-29T13:10:44;6.35;;;1.38;;
37241;SDS011;23135;51.078;12.108;2023-05-29T13:13:10;8.30;;;2.63;;
37241;SDS011;23135;51.078;12.108;2023-05-29T13:15:37;2.88;;;0.93;;
37241;SDS011;23135;51.078;12.108;2023-05-29T13:18:03;5.10;;;1.63;;
37241;SDS011;23135;51.078;12.108;2023-05-29T13:20:28;3.97;;;1.10;;
37241;SDS011;23135;51.078;12.108;2023-05-29T13:22:56;2.92;;;1.52;;
37241;SDS011;23135;51.078;12.108;2023-05-29T13:25:22;1.95;;;0.50;;
37241;SDS011;23135;51.078;12.108;2023-05-29T13:27:48;2.28;;;1.00;;
37241;SDS011;23135;51.078;12.108;2023-05-29T13:30:15;3.88;;;1.10;;
37241;SDS011;23135;51.078;12.108;2023-05-29T13:32:42;2.20;;;0.80;;
37241;SDS011;23135;51.078;12.108;2023-05-29T13:35:08;4.25;;;0.95;;
37241;SDS011;23135;51.078;12.108;2023-05-29T13:37:35;4.10;;;0.88;;
37241;SDS011;23135;51.078;12.108;2023-05-29T13:40:01;4.03;;;1.05;;
37241;SDS011;23135;51.078;12.108;2023-05-29T13:42:27;4.13;;;0.85;;
37241;SDS011;23135;51.078;12.108;2023-05-29T13:44:52;5.18;;;1.20;;
37241;SDS011;23135;51.078;12.108;2023-05-29T13:47:18;5.75;;;1.52;;
37241;SDS011;23135;51.078;12.108;2023-05-29T13:49:44;9.88;;;1.55;;
37241;SDS011;23135;51.078;12.108;2023-05-29T13:52:09;2.17;;;1.15;;
37241;SDS011;23135;51.078;12.108;2023-05-29T13:54:35;3.72;;;1.25;;
37241;SDS011;23135;51.078;12.108;2023-05-29T13:57:04;3.55;;;0.73;;
37241;SDS011;23135;51.078;12.108;2023-05-29T13:59:31;2.40;;;1.08;;
37241;SDS011;23135;51.078;12.108;2023-05-29T14:01:58;4.28;;;0.60;;
37241;SDS011;23135;51.078;12.108;2023-05-29T14:04:23;4.13;;;1.05;;
37241;SDS011;23135;51.078;12.108;2023-05-29T14:06:49;3.90;;;0.95;;
37241;SDS011;23135;51.078;12.108;2023-05-29T14:09:15;1.67;;;0.82;;
37241;SDS011;23135;51.078;12.108;2023-05-29T14:11:41;2.80;;;1.30;;
37241;SDS011;23135;51.078;12.108;2023-05-29T14:14:07;3.40;;;1.73;;
37241;SDS011;23135;51.078;12.108;2023-05-29T14:16:33;3.63;;;0.80;;
37241;SDS011;23135;51.078;12.108;2023-05-29T14:18:59;5.72;;;1.13;;
37241;SDS011;23135;51.078;12.108;2023-05-29T14:21:25;5.82;;;1.17;;
37241;SDS011;23135;51.078;12.108;2023-05-29T14:23:51;3.08;;;1.17;;
37241;SDS011;23135;51.078;12.108;2023-05-29T14:26:16;4.00;;;0.98;;
37241;SDS011;23135;51.078;12.108;2023-05-29T14:28:42;3.08;;;1.40;;
37241;SDS011;23135;51.078;12.108;2023-05-29T14:31:07;2.20;;;0.88;;
37241;SDS011;23135;51.078;12.108;2023-05-29T14:33:33;2.90;;;1.35;;
37241;SDS011;23135;51.078;12.108;2023-05-29T14:35:59;3.95;;;0.82;;
37241;SDS011;23135;51.078;12.108;2023-05-29T14:38:28;3.03;;;0.77;;
37241;SDS011;23135;51.078;12.108;2023-05-29T14:40:53;4.38;;;1.67;;
37241;SDS011;23135;51.078;12.108;2023-05-29T14:43:19;5.05;;;1.90;;
37241;SDS011;23135;51.078;12.108;2023-05-29T14:45:45;3.45;;;0.82;;
37241;SDS011;23135;51.078;12.108;2023-05-29T14:48:10;4.05;;;1.27;;
37241;SDS011;23135;51.078;12.108;2023-05-29T14:50:36;4.05;;;1.45;;
37241;SDS011;23135;51.078;12.108;2023-05-29T14:53:02;1.85;;;1.20;;
37241;SDS011;23135;51.078;12.108;2023-05-29T14:55:28;4.18;;;1.38;;
37241;SDS011;23135;51.078;12.108;2023-05-29T14:57:55;2.67;;;1.30;;
37241;SDS011;23135;51.078;12.108;2023-05-29T15:00:21;5.70;;;1.65;;
37241;SDS011;23135;51.078;12.108;2023-05-29T15:02:46;4.25;;;1.17;;
37241;SDS011;23135;51.078;12.108;2023-05-29T15:05:12;4.05;;;1.10;;